FW2430 Weather Reports


time (UTC)temp
F
wind
direction
speed
knots
gust
knots
rain 1hr
in
rain 24hr
in
rain mn
in
humidity
%
barometer
mb
20191023173035 55 279 11.3 20.9 0.00 0.00 0.00 47 1016.6
20191023170139 54 281 8.7 19.1 0.00 0.00 0.00 49 1016.7
20191023163153 53 240 12.2 18.2 0.00 0.00 0.00 52 1016.7
20191023161526 53 294 6.1 28.7 0.00 0.00 0.00 52 1016.5
20191023154633 53 247 9.6 17.4 0.00 0.00 0.00 53 1016.1
20191023153011 52 300 7.8 17.4 0.00 0.00 0.00 52 1016.0
20191023151646 52 265 11.3 20.0 0.00 0.00 0.00 53 1015.8
20191023150028 52 263 7.8 20.0 0.00 0.00 0.00 52 1015.6
20191023143118 51 221 7.8 15.6 0.00 0.05 0.00 56 1015.3
20191023140151 49 248 6.1 17.4 0.00 0.05 0.00 62 1014.9
20191023134531 48 265 4.3 14.8 0.00 0.09 0.00 67 1014.5
20191023131542 46 182 3.5 9.6 0.00 0.09 0.00 75 1014.1
20191023124615 44 131 1.7 6.1 0.00 0.11 0.00 81 1013.4
20191023123008 43 311 1.7 4.3 0.00 0.11 0.00 84 1013.2
20191023120133 42 218 1.7 4.3 0.00 0.11 0.00 87 1012.6
20191023113018 42 71 1.7 3.5 0.00 0.19 0.00 88 1012.4
20191023111629 42 178 0.9 5.2 0.00 0.19 0.00 87 1012.3
20191023104517 43 142 0.0 3.5 0.00 0.19 0.00 85 1012.1
20191023101726 44 167 0.0 2.6 0.00 0.19 0.00 83 1011.8
20191023100112 45 73 0.9 3.5 0.00 0.19 0.00 81 1011.8
20191023093209 46 171 1.7 7.0 0.00 0.20 0.00 78 1011.5
20191023091504 47 73 2.6 8.7 0.00 0.20 0.00 77 1011.2
20191023090014 48 189 0.9 5.2 0.00 0.20 0.00 74 1011.1
20191023084532 48 175 2.6 7.0 0.00 0.21 0.00 74 1010.9
20191023083032 48 230 2.6 6.1 0.00 0.21 0.00 74 1010.8
20191023074607 48 169 2.6 7.8 0.00 0.22 0.00 73 1010.5
20191023073010 49 210 2.6 10.4 0.00 0.22 0.00 73 1010.4
20191023071607 48 206 0.9 7.8 0.00 0.22 0.00 72 1010.4
20191023064703 47 182 1.7 5.2 0.00 0.25 0.00 76 1010.4
20191023061743 47 177 0.9 5.2 0.00 0.25 0.00 74 1010.3
20191023060043 48 236 0.9 6.1 0.00 0.25 0.00 73 1010.1
20191023053127 48 203 0.9 3.5 0.00 0.31 0.00 72 1010.0
20191023051547 48 175 1.7 7.8 0.00 0.31 0.00 72 1010.0
20191023044814 48 189 0.9 4.3 0.00 0.31 0.00 71 1010.1
20191023043013 50 263 0.9 3.5 0.00 0.31 0.00 67 1010.1
20191023041711 51 104 0.9 7.0 0.00 0.31 0.00 65 1010.1
20191023040138 52 227 3.5 7.8 0.00 0.31 0.00 61 1010.0
20191023034733 52 248 1.7 7.8 0.00 0.31 0.31 61 1009.9
20191023033016 53 247 2.6 13.0 0.00 0.31 0.31 62 1009.9
20191023030102 54 239 5.2 13.9 0.00 0.31 0.31 61 1009.8
20191023024502 54 240 3.5 9.6 0.00 0.31 0.31 63 1009.9
20191023021643 55 321 1.7 7.0 0.00 0.31 0.31 63 1009.4
20191023020011 55 190 1.7 10.4 0.00 0.31 0.31 62 1009.1
20191023014804 55 267 2.6 8.7 0.00 0.31 0.31 62 1009.0
20191023013011 55 193 0.0 8.7 0.00 0.31 0.31 63 1009.0
20191023010111 55 209 1.7 6.1 0.00 0.31 0.31 62 1008.7
20191023000040 55 238 2.6 7.8 0.00 0.31 0.31 59 1008.3
20191022233159 56 211 3.5 11.3 0.00 0.31 0.31 58 1008.1
20191022230202 56 244 3.5 11.3 0.00 0.31 0.31 64 1007.4
20191022224508 57 247 2.6 9.6 0.00 0.31 0.31 62 1007.2
20191022220142 58 235 3.5 9.6 0.00 0.31 0.31 66 1006.2
20191022214539 59 238 3.5 10.4 0.00 0.31 0.31 65 1005.8
20191022211547 59 258 6.1 11.3 0.00 0.31 0.31 66 1005.4
20191022204729 62 287 5.2 11.3 0.00 0.31 0.31 59 1005.1
20191022203013 62 265 3.5 8.7 0.00 0.31 0.31 54 1004.9
20191022200103 63 206 3.5 9.6 0.00 0.31 0.31 53 1004.6
20191022193159 64 175 3.5 10.4 0.00 0.31 0.31 55 1004.2
20191022191524 65 234 3.5 7.8 0.00 0.31 0.31 57 1004.0
20191022184656 66 204 4.3 17.4 0.00 0.31 0.31 59 1004.0
20191022181651 66 298 3.5 13.0 0.00 0.31 0.31 60 1004.3
20191022180008 65 253 3.5 10.4 0.00 0.31 0.31 59 1004.3
20191022174819 64 114 3.5 8.7 0.00 0.31 0.31 65 1004.4